sensor_id;sensor_type;location;lat;lon;timestamp;temperature;humidity
74458;SHT31;62896;51.032;3.712;2023-07-31T00:02:38;17.2;86
74458;SHT31;62896;51.032;3.712;2023-07-31T00:05:58;17.2;86
74458;SHT31;62896;51.032;3.712;2023-07-31T00:09:18;17.2;86
74458;SHT31;62896;51.032;3.712;2023-07-31T00:12:38;17.1;85
74458;SHT31;62896;51.032;3.712;2023-07-31T00:15:58;17.1;85
74458;SHT31;62896;51.032;3.712;2023-07-31T00:19:18;17.1;85
74458;SHT31;62896;51.032;3.712;2023-07-31T00:22:38;17.2;85
74458;SHT31;62896;51.032;3.712;2023-07-31T00:25:58;17.2;85
74458;SHT31;62896;51.032;3.712;2023-07-31T00:29:18;17.2;85
74458;SHT31;62896;51.032;3.712;2023-07-31T00:32:38;17.2;85
74458;SHT31;62896;51.032;3.712;2023-07-31T00:35:58;17.2;85
74458;SHT31;62896;51.032;3.712;2023-07-31T00:39:18;17.2;85
74458;SHT31;62896;51.032;3.712;2023-07-31T00:42:38;17.2;84
74458;SHT31;62896;51.032;3.712;2023-07-31T00:45:58;17.2;84
74458;SHT31;62896;51.032;3.712;2023-07-31T00:49:18;17.2;84
74458;SHT31;62896;51.032;3.712;2023-07-31T00:52:38;17.3;84
74458;SHT31;62896;51.032;3.712;2023-07-31T00:55:58;17.3;84
74458;SHT31;62896;51.032;3.712;2023-07-31T00:59:18;17.3;84
74458;SHT31;62896;51.032;3.712;2023-07-31T01:02:38;17.3;84
74458;SHT31;62896;51.032;3.712;2023-07-31T01:06:02;17.3;84
74458;SHT31;62896;51.032;3.712;2023-07-31T01:09:20;17.3;84
74458;SHT31;62896;51.032;3.712;2023-07-31T01:12:38;17.3;84
74458;SHT31;62896;51.032;3.712;2023-07-31T01:15:58;17.3;84
74458;SHT31;62896;51.032;3.712;2023-07-31T01:19:18;17.3;84
74458;SHT31;62896;51.032;3.712;2023-07-31T01:22:41;17.3;84
74458;SHT31;62896;51.032;3.712;2023-07-31T01:26:00;17.3;84
74458;SHT31;62896;51.032;3.712;2023-07-31T01:29:20;17.3;84
74458;SHT31;62896;51.032;3.712;2023-07-31T01:32:39;17.3;84
74458;SHT31;62896;51.032;3.712;2023-07-31T01:35:58;17.3;84
74458;SHT31;62896;51.032;3.712;2023-07-31T01:39:19;17.3;84
74458;SHT31;62896;51.032;3.712;2023-07-31T01:42:38;17.4;84
74458;SHT31;62896;51.032;3.712;2023-07-31T01:45:58;17.4;84
74458;SHT31;62896;51.032;3.712;2023-07-31T01:49:18;17.4;84
74458;SHT31;62896;51.032;3.712;2023-07-31T01:52:38;17.4;84
74458;SHT31;62896;51.032;3.712;2023-07-31T01:55:58;17.4;84
74458;SHT31;62896;51.032;3.712;2023-07-31T01:59:18;17.4;84
74458;SHT31;62896;51.032;3.712;2023-07-31T02:02:38;17.4;84
74458;SHT31;62896;51.032;3.712;2023-07-31T02:05:58;17.4;84
74458;SHT31;62896;51.032;3.712;2023-07-31T02:09:18;17.4;84
74458;SHT31;62896;51.032;3.712;2023-07-31T02:12:38;17.4;85
74458;SHT31;62896;51.032;3.712;2023-07-31T02:15:58;17.4;85
74458;SHT31;62896;51.032;3.712;2023-07-31T02:19:18;17.4;85
74458;SHT31;62896;51.032;3.712;2023-07-31T02:22:38;17.4;85
74458;SHT31;62896;51.032;3.712;2023-07-31T02:25:58;17.4;85
74458;SHT31;62896;51.032;3.712;2023-07-31T02:29:18;17.4;85
74458;SHT31;62896;51.032;3.712;2023-07-31T02:32:38;17.4;85
74458;SHT31;62896;51.032;3.712;2023-07-31T02:35:58;17.4;85
74458;SHT31;62896;51.032;3.712;2023-07-31T02:39:18;17.4;85
74458;SHT31;62896;51.032;3.712;2023-07-31T02:42:38;17.4;86
74458;SHT31;62896;51.032;3.712;2023-07-31T02:45:59;17.4;86
74458;SHT31;62896;51.032;3.712;2023-07-31T02:49:18;17.4;86
74458;SHT31;62896;51.032;3.712;2023-07-31T02:52:38;17.3;88
74458;SHT31;62896;51.032;3.712;2023-07-31T02:55:58;17.3;88
74458;SHT31;62896;51.032;3.712;2023-07-31T02:59:18;17.3;88
74458;SHT31;62896;51.032;3.712;2023-07-31T03:02:38;17.3;90
74458;SHT31;62896;51.032;3.712;2023-07-31T03:05:58;17.3;90
74458;SHT31;62896;51.032;3.712;2023-07-31T03:09:18;17.3;90
74458;SHT31;62896;51.032;3.712;2023-07-31T03:12:38;17.2;91
74458;SHT31;62896;51.032;3.712;2023-07-31T03:15:58;17.2;91
74458;SHT31;62896;51.032;3.712;2023-07-31T03:19:18;17.2;91
74458;SHT31;62896;51.032;3.712;2023-07-31T03:22:38;17.2;92
74458;SHT31;62896;51.032;3.712;2023-07-31T03:25:58;17.2;92
74458;SHT31;62896;51.032;3.712;2023-07-31T03:29:18;17.2;92
74458;SHT31;62896;51.032;3.712;2023-07-31T03:32:38;17;94
74458;SHT31;62896;51.032;3.712;2023-07-31T03:35:58;17;94
74458;SHT31;62896;51.032;3.712;2023-07-31T03:39:18;17;94
74458;SHT31;62896;51.032;3.712;2023-07-31T03:42:38;16.8;95
74458;SHT31;62896;51.032;3.712;2023-07-31T03:45:58;16.8;95
74458;SHT31;62896;51.032;3.712;2023-07-31T03:49:18;16.8;95
74458;SHT31;62896;51.032;3.712;2023-07-31T03:52:38;16.7;96
74458;SHT31;62896;51.032;3.712;2023-07-31T03:55:58;16.7;96
74458;SHT31;62896;51.032;3.712;2023-07-31T03:59:18;16.7;96
74458;SHT31;62896;51.032;3.712;2023-07-31T04:02:38;16.6;97
74458;SHT31;62896;51.032;3.712;2023-07-31T04:05:58;16.6;97
74458;SHT31;62896;51.032;3.712;2023-07-31T04:09:18;16.6;97
74458;SHT31;62896;51.032;3.712;2023-07-31T04:12:38;16.6;97
74458;SHT31;62896;51.032;3.712;2023-07-31T04:15:58;16.6;97
74458;SHT31;62896;51.032;3.712;2023-07-31T04:19:18;16.6;97
74458;SHT31;62896;51.032;3.712;2023-07-31T04:22:38;16.6;97
74458;SHT31;62896;51.032;3.712;2023-07-31T04:25:58;16.6;97
74458;SHT31;62896;51.032;3.712;2023-07-31T04:29:18;16.6;97
74458;SHT31;62896;51.032;3.712;2023-07-31T04:32:38;16.7;97
74458;SHT31;62896;51.032;3.712;2023-07-31T04:35:59;16.7;97
74458;SHT31;62896;51.032;3.712;2023-07-31T04:39:18;16.7;97
74458;SHT31;62896;51.032;3.712;2023-07-31T04:42:38;16.7;96
74458;SHT31;62896;51.032;3.712;2023-07-31T04:45:58;16.7;96
74458;SHT31;62896;51.032;3.712;2023-07-31T04:49:19;16.7;96
74458;SHT31;62896;51.032;3.712;2023-07-31T04:52:38;16.6;96
74458;SHT31;62896;51.032;3.712;2023-07-31T04:55:58;16.6;96
74458;SHT31;62896;51.032;3.712;2023-07-31T04:59:18;16.6;96
74458;SHT31;62896;51.032;3.712;2023-07-31T05:02:38;16.6;97
74458;SHT31;62896;51.032;3.712;2023-07-31T05:05:58;16.6;97
74458;SHT31;62896;51.032;3.712;2023-07-31T05:09:18;16.6;97
74458;SHT31;62896;51.032;3.712;2023-07-31T05:12:38;16.6;97
74458;SHT31;62896;51.032;3.712;2023-07-31T05:15:58;16.6;97
74458;SHT31;62896;51.032;3.712;2023-07-31T05:19:18;16.6;97
74458;SHT31;62896;51.032;3.712;2023-07-31T05:22:38;16.7;98
74458;SHT31;62896;51.032;3.712;2023-07-31T05:26:02;16.7;98
74458;SHT31;62896;51.032;3.712;2023-07-31T05:29:18;16.7;98
74458;SHT31;62896;51.032;3.712;2023-07-31T05:32:38;16.7;97
74458;SHT31;62896;51.032;3.712;2023-07-31T05:35:58;16.7;97
74458;SHT31;62896;51.032;3.712;2023-07-31T05:39:18;16.7;97
74458;SHT31;62896;51.032;3.712;2023-07-31T05:42:38;16.8;97
74458;SHT31;62896;51.032;3.712;2023-07-31T05:45:58;16.8;97
74458;SHT31;62896;51.032;3.712;2023-07-31T05:49:18;16.8;97
74458;SHT31;62896;51.032;3.712;2023-07-31T05:52:38;16.9;96
74458;SHT31;62896;51.032;3.712;2023-07-31T05:55:58;16.9;96
74458;SHT31;62896;51.032;3.712;2023-07-31T05:59:18;16.9;96
74458;SHT31;62896;51.032;3.712;2023-07-31T06:02:38;16.9;96
74458;SHT31;62896;51.032;3.712;2023-07-31T06:05:58;16.9;96
74458;SHT31;62896;51.032;3.712;2023-07-31T06:09:18;16.9;96
74458;SHT31;62896;51.032;3.712;2023-07-31T06:12:38;16.9;96
74458;SHT31;62896;51.032;3.712;2023-07-31T06:15:58;16.9;96
74458;SHT31;62896;51.032;3.712;2023-07-31T06:19:18;16.9;96
74458;SHT31;62896;51.032;3.712;2023-07-31T06:22:38;17;95
74458;SHT31;62896;51.032;3.712;2023-07-31T06:25:58;17;95
74458;SHT31;62896;51.032;3.712;2023-07-31T06:29:18;17;95
74458;SHT31;62896;51.032;3.712;2023-07-31T06:32:38;17.1;94
74458;SHT31;62896;51.032;3.712;2023-07-31T06:35:58;17.1;94
74458;SHT31;62896;51.032;3.712;2023-07-31T06:39:18;17.1;94
74458;SHT31;62896;51.032;3.712;2023-07-31T06:42:38;17.2;93
74458;SHT31;62896;51.032;3.712;2023-07-31T06:45:59;17.2;93
74458;SHT31;62896;51.032;3.712;2023-07-31T06:49:18;17.2;93
74458;SHT31;62896;51.032;3.712;2023-07-31T06:52:38;17.2;93
74458;SHT31;62896;51.032;3.712;2023-07-31T06:55:58;17.2;93
74458;SHT31;62896;51.032;3.712;2023-07-31T06:59:18;17.2;93
74458;SHT31;62896;51.032;3.712;2023-07-31T07:02:38;17.3;93
74458;SHT31;62896;51.032;3.712;2023-07-31T07:05:58;17.3;93
74458;SHT31;62896;51.032;3.712;2023-07-31T07:09:18;17.3;93
74458;SHT31;62896;51.032;3.712;2023-07-31T07:12:38;17.4;92
74458;SHT31;62896;51.032;3.712;2023-07-31T07:15:58;17.4;92
74458;SHT31;62896;51.032;3.712;2023-07-31T07:19:18;17.4;92
74458;SHT31;62896;51.032;3.712;2023-07-31T07:22:38;17.6;91
74458;SHT31;62896;51.032;3.712;2023-07-31T07:25:58;17.6;91
74458;SHT31;62896;51.032;3.712;2023-07-31T07:29:18;17.6;91
74458;SHT31;62896;51.032;3.712;2023-07-31T07:32:38;18;89
74458;SHT31;62896;51.032;3.712;2023-07-31T07:35:59;18;89
74458;SHT31;62896;51.032;3.712;2023-07-31T07:39:18;18;89
74458;SHT31;62896;51.032;3.712;2023-07-31T07:42:38;17.9;90
74458;SHT31;62896;51.032;3.712;2023-07-31T07:45:58;17.9;90
74458;SHT31;62896;51.032;3.712;2023-07-31T07:49:18;17.9;90
74458;SHT31;62896;51.032;3.712;2023-07-31T07:52:38;17.8;90
74458;SHT31;62896;51.032;3.712;2023-07-31T07:55:58;17.8;90
74458;SHT31;62896;51.032;3.712;2023-07-31T07:59:18;17.8;90
74458;SHT31;62896;51.032;3.712;2023-07-31T08:02:38;18.1;90
74458;SHT31;62896;51.032;3.712;2023-07-31T08:05:58;18.1;90
74458;SHT31;62896;51.032;3.712;2023-07-31T08:09:18;18.1;90
74458;SHT31;62896;51.032;3.712;2023-07-31T08:12:38;18.3;88
74458;SHT31;62896;51.032;3.712;2023-07-31T08:15:58;18.3;88
74458;SHT31;62896;51.032;3.712;2023-07-31T08:19:18;18.3;88
74458;SHT31;62896;51.032;3.712;2023-07-31T08:22:38;18.5;87
74458;SHT31;62896;51.032;3.712;2023-07-31T08:25:58;18.5;87
74458;SHT31;62896;51.032;3.712;2023-07-31T08:29:18;18.5;87
74458;SHT31;62896;51.032;3.712;2023-07-31T08:32:38;18.5;87
74458;SHT31;62896;51.032;3.712;2023-07-31T08:35:58;18.5;87
74458;SHT31;62896;51.032;3.712;2023-07-31T08:39:18;18.5;87
74458;SHT31;62896;51.032;3.712;2023-07-31T08:42:42;18.7;86
74458;SHT31;62896;51.032;3.712;2023-07-31T08:45:58;18.7;86
74458;SHT31;62896;51.032;3.712;2023-07-31T08:49:18;18.7;86
74458;SHT31;62896;51.032;3.712;2023-07-31T08:52:38;19.1;85
74458;SHT31;62896;51.032;3.712;2023-07-31T08:55:58;19.1;85
74458;SHT31;62896;51.032;3.712;2023-07-31T08:59:18;19.1;85
74458;SHT31;62896;51.032;3.712;2023-07-31T09:02:43;19.1;85
74458;SHT31;62896;51.032;3.712;2023-07-31T09:05:58;19.1;85
74458;SHT31;62896;51.032;3.712;2023-07-31T09:09:18;19.1;85
74458;SHT31;62896;51.032;3.712;2023-07-31T09:12:38;19;87
74458;SHT31;62896;51.032;3.712;2023-07-31T09:15:58;19;87
74458;SHT31;62896;51.032;3.712;2023-07-31T09:19:24;19;87
74458;SHT31;62896;51.032;3.712;2023-07-31T09:22:38;18.9;88
74458;SHT31;62896;51.032;3.712;2023-07-31T09:25:58;18.9;88
74458;SHT31;62896;51.032;3.712;2023-07-31T09:29:18;18.9;88
74458;SHT31;62896;51.032;3.712;2023-07-31T09:32:38;19;87
74458;SHT31;62896;51.032;3.712;2023-07-31T09:35:58;19;87
74458;SHT31;62896;51.032;3.712;2023-07-31T09:39:18;19;87
74458;SHT31;62896;51.032;3.712;2023-07-31T09:42:38;19.1;87
74458;SHT31;62896;51.032;3.712;2023-07-31T09:45:58;19.1;87
74458;SHT31;62896;51.032;3.712;2023-07-31T09:49:18;19.1;87
74458;SHT31;62896;51.032;3.712;2023-07-31T09:52:38;19.2;87
74458;SHT31;62896;51.032;3.712;2023-07-31T09:55:58;19.2;87
74458;SHT31;62896;51.032;3.712;2023-07-31T09:59:19;19.2;87
74458;SHT31;62896;51.032;3.712;2023-07-31T10:02:39;19.4;86
74458;SHT31;62896;51.032;3.712;2023-07-31T10:05:58;19.4;86
74458;SHT31;62896;51.032;3.712;2023-07-31T10:09:18;19.4;86
74458;SHT31;62896;51.032;3.712;2023-07-31T10:12:38;19.5;86
74458;SHT31;62896;51.032;3.712;2023-07-31T10:15:58;19.5;86
74458;SHT31;62896;51.032;3.712;2023-07-31T10:19:18;19.5;86
74458;SHT31;62896;51.032;3.712;2023-07-31T10:22:38;19.5;87
74458;SHT31;62896;51.032;3.712;2023-07-31T10:25:58;19.5;87
74458;SHT31;62896;51.032;3.712;2023-07-31T10:29:18;19.5;87
74458;SHT31;62896;51.032;3.712;2023-07-31T10:32:38;19.1;90
74458;SHT31;62896;51.032;3.712;2023-07-31T10:36:13;19.1;90
74458;SHT31;62896;51.032;3.712;2023-07-31T10:39:34;19.1;90
74458;SHT31;62896;51.032;3.712;2023-07-31T10:42:45;19.2;89
74458;SHT31;62896;51.032;3.712;2023-07-31T10:45:58;19.2;89
74458;SHT31;62896;51.032;3.712;2023-07-31T10:49:20;19.2;89
74458;SHT31;62896;51.032;3.712;2023-07-31T10:52:38;19.6;87
74458;SHT31;62896;51.032;3.712;2023-07-31T10:55:58;19.6;87
74458;SHT31;62896;51.032;3.712;2023-07-31T10:59:18;19.6;87
74458;SHT31;62896;51.032;3.712;2023-07-31T11:02:38;19.8;86
74458;SHT31;62896;51.032;3.712;2023-07-31T11:06:00;19.8;86
74458;SHT31;62896;51.032;3.712;2023-07-31T11:09:18;19.8;86
74458;SHT31;62896;51.032;3.712;2023-07-31T11:12:38;20.2;84
74458;SHT31;62896;51.032;3.712;2023-07-31T11:15:58;20.2;84
74458;SHT31;62896;51.032;3.712;2023-07-31T11:19:21;20.2;84
74458;SHT31;62896;51.032;3.712;2023-07-31T11:22:38;20.4;83
74458;SHT31;62896;51.032;3.712;2023-07-31T11:25:59;20.4;83
74458;SHT31;62896;51.032;3.712;2023-07-31T11:29:18;20.4;83
74458;SHT31;62896;51.032;3.712;2023-07-31T11:32:38;20.4;84
74458;SHT31;62896;51.032;3.712;2023-07-31T11:35:58;20.4;84
74458;SHT31;62896;51.032;3.712;2023-07-31T11:39:18;20.4;84
74458;SHT31;62896;51.032;3.712;2023-07-31T11:42:38;20.4;83
74458;SHT31;62896;51.032;3.712;2023-07-31T11:45:59;20.4;83
74458;SHT31;62896;51.032;3.712;2023-07-31T11:49:18;20.4;83
74458;SHT31;62896;51.032;3.712;2023-07-31T11:52:40;20.7;83
74458;SHT31;62896;51.032;3.712;2023-07-31T11:55:58;20.7;83
74458;SHT31;62896;51.032;3.712;2023-07-31T11:59:18;20.7;83
74458;SHT31;62896;51.032;3.712;2023-07-31T12:02:38;20.4;83
74458;SHT31;62896;51.032;3.712;2023-07-31T12:05:58;20.4;83
74458;SHT31;62896;51.032;3.712;2023-07-31T12:09:18;20.4;83
74458;SHT31;62896;51.032;3.712;2023-07-31T12:12:38;20.4;83
74458;SHT31;62896;51.032;3.712;2023-07-31T12:15:59;20.4;83
74458;SHT31;62896;51.032;3.712;2023-07-31T12:19:18;20.4;83
74458;SHT31;62896;51.032;3.712;2023-07-31T12:22:38;20.3;83
74458;SHT31;62896;51.032;3.712;2023-07-31T12:25:59;20.3;83
74458;SHT31;62896;51.032;3.712;2023-07-31T12:29:18;20.3;83
74458;SHT31;62896;51.032;3.712;2023-07-31T12:32:38;20;87
74458;SHT31;62896;51.032;3.712;2023-07-31T12:35:59;20;87
74458;SHT31;62896;51.032;3.712;2023-07-31T12:39:18;20;87
74458;SHT31;62896;51.032;3.712;2023-07-31T12:42:38;19.3;92
74458;SHT31;62896;51.032;3.712;2023-07-31T12:45:58;19.3;92
74458;SHT31;62896;51.032;3.712;2023-07-31T12:49:18;19.3;92
74458;SHT31;62896;51.032;3.712;2023-07-31T12:52:38;18.9;94
74458;SHT31;62896;51.032;3.712;2023-07-31T12:55:58;18.9;94
74458;SHT31;62896;51.032;3.712;2023-07-31T12:59:18;18.9;94
74458;SHT31;62896;51.032;3.712;2023-07-31T13:02:38;18.6;96
74458;SHT31;62896;51.032;3.712;2023-07-31T13:05:58;18.6;96
74458;SHT31;62896;51.032;3.712;2023-07-31T13:09:18;18.6;96
74458;SHT31;62896;51.032;3.712;2023-07-31T13:12:38;18.5;96
74458;SHT31;62896;51.032;3.712;2023-07-31T13:15:58;18.5;96
74458;SHT31;62896;51.032;3.712;2023-07-31T13:19:18;18.5;96
74458;SHT31;62896;51.032;3.712;2023-07-31T13:22:38;18.5;96
74458;SHT31;62896;51.032;3.712;2023-07-31T13:25:58;18.5;96
74458;SHT31;62896;51.032;3.712;2023-07-31T13:29:18;18.5;96
74458;SHT31;62896;51.032;3.712;2023-07-31T13:32:38;18.2;97
74458;SHT31;62896;51.032;3.712;2023-07-31T13:35:58;18.2;97
74458;SHT31;62896;51.032;3.712;2023-07-31T13:39:18;18.2;97
74458;SHT31;62896;51.032;3.712;2023-07-31T13:42:38;18.1;98
74458;SHT31;62896;51.032;3.712;2023-07-31T13:45:58;18.1;98
74458;SHT31;62896;51.032;3.712;2023-07-31T13:49:18;18.1;98
74458;SHT31;62896;51.032;3.712;2023-07-31T13:52:38;18.1;98
74458;SHT31;62896;51.032;3.712;2023-07-31T13:55:58;18.1;98
74458;SHT31;62896;51.032;3.712;2023-07-31T13:59:18;18.1;98
74458;SHT31;62896;51.032;3.712;2023-07-31T14:02:38;18.1;98
74458;SHT31;62896;51.032;3.712;2023-07-31T14:05:58;18.1;98
74458;SHT31;62896;51.032;3.712;2023-07-31T14:09:18;18.1;98
74458;SHT31;62896;51.032;3.712;2023-07-31T14:12:38;18.2;98
74458;SHT31;62896;51.032;3.712;2023-07-31T14:15:58;18.2;98
74458;SHT31;62896;51.032;3.712;2023-07-31T14:19:18;18.2;98
74458;SHT31;62896;51.032;3.712;2023-07-31T14:22:38;18.3;98
74458;SHT31;62896;51.032;3.712;2023-07-31T14:25:58;18.3;98
74458;SHT31;62896;51.032;3.712;2023-07-31T14:29:18;18.3;98
74458;SHT31;62896;51.032;3.712;2023-07-31T14:32:38;18.3;98
74458;SHT31;62896;51.032;3.712;2023-07-31T14:35:58;18.3;98
74458;SHT31;62896;51.032;3.712;2023-07-31T14:39:19;18.3;98
74458;SHT31;62896;51.032;3.712;2023-07-31T14:42:38;18.2;98
74458;SHT31;62896;51.032;3.712;2023-07-31T14:45:58;18.2;98
74458;SHT31;62896;51.032;3.712;2023-07-31T14:49:18;18.2;98
74458;SHT31;62896;51.032;3.712;2023-07-31T14:52:38;18.2;99
74458;SHT31;62896;51.032;3.712;2023-07-31T14:55:58;18.2;99
74458;SHT31;62896;51.032;3.712;2023-07-31T14:59:18;18.2;99
74458;SHT31;62896;51.032;3.712;2023-07-31T15:02:38;18.2;99
74458;SHT31;62896;51.032;3.712;2023-07-31T15:05:58;18.2;99
74458;SHT31;62896;51.032;3.712;2023-07-31T15:09:18;18.2;99
74458;SHT31;62896;51.032;3.712;2023-07-31T15:12:39;18.1;99
74458;SHT31;62896;51.032;3.712;2023-07-31T15:15:58;18.1;99
74458;SHT31;62896;51.032;3.712;2023-07-31T15:19:18;18.1;99
74458;SHT31;62896;51.032;3.712;2023-07-31T15:22:38;18.1;99
74458;SHT31;62896;51.032;3.712;2023-07-31T15:25:58;18.1;99
74458;SHT31;62896;51.032;3.712;2023-07-31T15:29:18;18.1;99
74458;SHT31;62896;51.032;3.712;2023-07-31T15:32:38;18.1;99
74458;SHT31;62896;51.032;3.712;2023-07-31T15:35:58;18.1;99
74458;SHT31;62896;51.032;3.712;2023-07-31T15:39:18;18.1;99
74458;SHT31;62896;51.032;3.712;2023-07-31T15:42:38;18.1;99
74458;SHT31;62896;51.032;3.712;2023-07-31T15:45:58;18.1;99
74458;SHT31;62896;51.032;3.712;2023-07-31T15:49:18;18.1;99
74458;SHT31;62896;51.032;3.712;2023-07-31T15:52:38;18.2;99
74458;SHT31;62896;51.032;3.712;2023-07-31T15:55:58;18.2;99
74458;SHT31;62896;51.032;3.712;2023-07-31T15:59:18;18.2;99
74458;SHT31;62896;51.032;3.712;2023-07-31T16:02:38;18.2;99
74458;SHT31;62896;51.032;3.712;2023-07-31T16:05:58;18.2;99
74458;SHT31;62896;51.032;3.712;2023-07-31T16:09:18;18.2;99
74458;SHT31;62896;51.032;3.712;2023-07-31T16:12:38;18.1;99
74458;SHT31;62896;51.032;3.712;2023-07-31T16:15:58;18.1;99
74458;SHT31;62896;51.032;3.712;2023-07-31T16:19:18;18.1;99
74458;SHT31;62896;51.032;3.712;2023-07-31T16:22:38;18.1;99
74458;SHT31;62896;51.032;3.712;2023-07-31T16:25:58;18.1;99
74458;SHT31;62896;51.032;3.712;2023-07-31T16:29:18;18.1;99
74458;SHT31;62896;51.032;3.712;2023-07-31T16:32:38;18.1;100
74458;SHT31;62896;51.032;3.712;2023-07-31T16:35:58;18.1;100
74458;SHT31;62896;51.032;3.712;2023-07-31T16:39:18;18.1;100
74458;SHT31;62896;51.032;3.712;2023-07-31T16:42:38;18.1;100
74458;SHT31;62896;51.032;3.712;2023-07-31T16:45:58;18.1;100
74458;SHT31;62896;51.032;3.712;2023-07-31T16:49:18;18.1;100
74458;SHT31;62896;51.032;3.712;2023-07-31T16:52:38;18.1;100
74458;SHT31;62896;51.032;3.712;2023-07-31T16:55:58;18.1;100
74458;SHT31;62896;51.032;3.712;2023-07-31T16:59:19;18.1;100
74458;SHT31;62896;51.032;3.712;2023-07-31T17:02:38;18;100
74458;SHT31;62896;51.032;3.712;2023-07-31T17:05:58;18;100
74458;SHT31;62896;51.032;3.712;2023-07-31T17:09:18;18;100
74458;SHT31;62896;51.032;3.712;2023-07-31T17:12:38;17.9;100
74458;SHT31;62896;51.032;3.712;2023-07-31T17:15:58;17.9;100
74458;SHT31;62896;51.032;3.712;2023-07-31T17:19:18;17.9;100
74458;SHT31;62896;51.032;3.712;2023-07-31T17:22:38;17.9;100
74458;SHT31;62896;51.032;3.712;2023-07-31T17:25:58;17.9;100
74458;SHT31;62896;51.032;3.712;2023-07-31T17:29:18;17.9;100
74458;SHT31;62896;51.032;3.712;2023-07-31T17:32:38;18;100
74458;SHT31;62896;51.032;3.712;2023-07-31T17:35:58;18;100
74458;SHT31;62896;51.032;3.712;2023-07-31T17:39:18;18;100
74458;SHT31;62896;51.032;3.712;2023-07-31T17:42:38;17.9;100
74458;SHT31;62896;51.032;3.712;2023-07-31T17:45:58;17.9;100
74458;SHT31;62896;51.032;3.712;2023-07-31T17:49:18;17.9;100
74458;SHT31;62896;51.032;3.712;2023-07-31T17:52:38;18;100
74458;SHT31;62896;51.032;3.712;2023-07-31T17:55:58;18;100
74458;SHT31;62896;51.032;3.712;2023-07-31T17:59:18;18;100
74458;SHT31;62896;51.032;3.712;2023-07-31T18:02:38;18.3;100
74458;SHT31;62896;51.032;3.712;2023-07-31T18:05:58;18.3;100
74458;SHT31;62896;51.032;3.712;2023-07-31T18:09:18;18.3;100
74458;SHT31;62896;51.032;3.712;2023-07-31T18:12:38;18.3;100
74458;SHT31;62896;51.032;3.712;2023-07-31T18:15:58;18.3;100
74458;SHT31;62896;51.032;3.712;2023-07-31T18:19:18;18.3;100
74458;SHT31;62896;51.032;3.712;2023-07-31T18:22:38;18.2;100
74458;SHT31;62896;51.032;3.712;2023-07-31T18:25:58;18.2;100
74458;SHT31;62896;51.032;3.712;2023-07-31T18:29:18;18.2;100
74458;SHT31;62896;51.032;3.712;2023-07-31T18:32:38;18.2;100
74458;SHT31;62896;51.032;3.712;2023-07-31T18:36:01;18.2;100
74458;SHT31;62896;51.032;3.712;2023-07-31T18:39:18;18.2;100
74458;SHT31;62896;51.032;3.712;2023-07-31T18:42:38;18.2;100
74458;SHT31;62896;51.032;3.712;2023-07-31T18:45:58;18.2;100
74458;SHT31;62896;51.032;3.712;2023-07-31T18:49:18;18.2;100
74458;SHT31;62896;51.032;3.712;2023-07-31T18:52:38;18.1;100
74458;SHT31;62896;51.032;3.712;2023-07-31T18:55:58;18.1;100
74458;SHT31;62896;51.032;3.712;2023-07-31T18:59:18;18.1;100
74458;SHT31;62896;51.032;3.712;2023-07-31T19:02:38;17.7;100
74458;SHT31;62896;51.032;3.712;2023-07-31T19:06:00;17.7;100
74458;SHT31;62896;51.032;3.712;2023-07-31T19:09:26;17.7;100
74458;SHT31;62896;51.032;3.712;2023-07-31T19:12:38;17.6;100
74458;SHT31;62896;51.032;3.712;2023-07-31T19:15:58;17.6;100
74458;SHT31;62896;51.032;3.712;2023-07-31T19:19:18;17.6;100
74458;SHT31;62896;51.032;3.712;2023-07-31T19:22:38;17.6;100
74458;SHT31;62896;51.032;3.712;2023-07-31T19:25:58;17.6;100
74458;SHT31;62896;51.032;3.712;2023-07-31T19:29:18;17.6;100
74458;SHT31;62896;51.032;3.712;2023-07-31T19:32:38;17.6;100
74458;SHT31;62896;51.032;3.712;2023-07-31T19:35:59;17.6;100
74458;SHT31;62896;51.032;3.712;2023-07-31T19:39:18;17.6;100
74458;SHT31;62896;51.032;3.712;2023-07-31T19:42:38;17.6;100
74458;SHT31;62896;51.032;3.712;2023-07-31T19:45:58;17.6;100
74458;SHT31;62896;51.032;3.712;2023-07-31T19:49:18;17.6;100
74458;SHT31;62896;51.032;3.712;2023-07-31T19:52:38;17.6;100
74458;SHT31;62896;51.032;3.712;2023-07-31T19:55:58;17.6;100
74458;SHT31;62896;51.032;3.712;2023-07-31T19:59:18;17.6;100
74458;SHT31;62896;51.032;3.712;2023-07-31T20:02:38;17.6;100
74458;SHT31;62896;51.032;3.712;2023-07-31T20:05:58;17.6;100
74458;SHT31;62896;51.032;3.712;2023-07-31T20:09:19;17.6;100
74458;SHT31;62896;51.032;3.712;2023-07-31T20:12:38;17.6;100
74458;SHT31;62896;51.032;3.712;2023-07-31T20:15:58;17.6;100
74458;SHT31;62896;51.032;3.712;2023-07-31T20:19:18;17.6;100
74458;SHT31;62896;51.032;3.712;2023-07-31T20:22:38;17.5;100
74458;SHT31;62896;51.032;3.712;2023-07-31T20:25:58;17.5;100
74458;SHT31;62896;51.032;3.712;2023-07-31T20:29:18;17.5;100
74458;SHT31;62896;51.032;3.712;2023-07-31T20:32:38;17.5;100
74458;SHT31;62896;51.032;3.712;2023-07-31T20:35:58;17.5;100
74458;SHT31;62896;51.032;3.712;2023-07-31T20:39:18;17.5;100
74458;SHT31;62896;51.032;3.712;2023-07-31T20:42:38;17.4;100
74458;SHT31;62896;51.032;3.712;2023-07-31T20:45:58;17.4;100
74458;SHT31;62896;51.032;3.712;2023-07-31T20:49:18;17.4;100
74458;SHT31;62896;51.032;3.712;2023-07-31T20:52:38;17.4;100
74458;SHT31;62896;51.032;3.712;2023-07-31T20:55:58;17.4;100
74458;SHT31;62896;51.032;3.712;2023-07-31T20:59:18;17.4;100
74458;SHT31;62896;51.032;3.712;2023-07-31T21:02:38;17.2;100
74458;SHT31;62896;51.032;3.712;2023-07-31T21:05:59;17.2;100
74458;SHT31;62896;51.032;3.712;2023-07-31T21:09:18;17.2;100
74458;SHT31;62896;51.032;3.712;2023-07-31T21:12:38;17.1;100
74458;SHT31;62896;51.032;3.712;2023-07-31T21:15:59;17.1;100
74458;SHT31;62896;51.032;3.712;2023-07-31T21:19:18;17.1;100
74458;SHT31;62896;51.032;3.712;2023-07-31T21:22:38;17;100
74458;SHT31;62896;51.032;3.712;2023-07-31T21:25:58;17;100
74458;SHT31;62896;51.032;3.712;2023-07-31T21:29:19;17;100
74458;SHT31;62896;51.032;3.712;2023-07-31T21:32:39;16.9;100
74458;SHT31;62896;51.032;3.712;2023-07-31T21:35:58;16.9;100
74458;SHT31;62896;51.032;3.712;2023-07-31T21:39:19;16.9;100
74458;SHT31;62896;51.032;3.712;2023-07-31T21:42:38;16.8;100
74458;SHT31;62896;51.032;3.712;2023-07-31T21:45:58;16.8;100
74458;SHT31;62896;51.032;3.712;2023-07-31T21:49:19;16.8;100
74458;SHT31;62896;51.032;3.712;2023-07-31T21:52:39;16.7;100
74458;SHT31;62896;51.032;3.712;2023-07-31T21:55:59;16.7;100
74458;SHT31;62896;51.032;3.712;2023-07-31T21:59:19;16.7;100
74458;SHT31;62896;51.032;3.712;2023-07-31T22:02:39;16.6;100
74458;SHT31;62896;51.032;3.712;2023-07-31T22:05:59;16.6;100
74458;SHT31;62896;51.032;3.712;2023-07-31T22:09:19;16.6;100
74458;SHT31;62896;51.032;3.712;2023-07-31T22:12:39;16.6;100
74458;SHT31;62896;51.032;3.712;2023-07-31T22:15:59;16.6;100
74458;SHT31;62896;51.032;3.712;2023-07-31T22:19:19;16.6;100
74458;SHT31;62896;51.032;3.712;2023-07-31T22:22:39;16.6;100
74458;SHT31;62896;51.032;3.712;2023-07-31T22:25:59;16.6;100